This is the latest recevied weather packets stored in our database for station/object F4CYQ-10. If no packets are shown the sender has not sent any weather packets the latest 10 day(s).
| Time | Temp. | Humidity | Pressure | Rain* | Wind** | Luminosity | Snow |
|---|---|---|---|---|---|---|---|
| 1777528528 | -5° C | 100% | 4.8 hPa | - | - | - | - |
| 1777527733 | -5° C | 100% | 4.8 hPa | - | - | - | - |
| 1777527359 | 20° C | 57% | 1015.8 hPa | - | - | - | - |
| 1777526458 | 20° C | 58% | 1015.2 hPa | - | - | - | - |
| 1777525557 | 20° C | 59% | 1014.9 hPa | - | - | - | - |
| 1777524656 | 21.11° C | 60% | 1014.8 hPa | - | - | - | - |
| 1777524241 | 20° C | 60% | 1014.7 hPa | - | - | - | - |
| 1777523340 | 21.11° C | 60% | 1014.1 hPa | - | - | - | - |
| 1777522439 | 20.56° C | 61% | 1013.8 hPa | - | - | - | - |
| 1777521538 | 20.56° C | 61% | 1013.8 hPa | - | - | - | - |
| 1777520995 | 20° C | 61% | 1013.7 hPa | - | - | - | - |
| 1777520095 | 19.44° C | 61% | 1013.6 hPa | - | - | - | - |
| 1777519193 | 19.44° C | 62% | 1013.5 hPa | - | - | - | - |
| 1777518292 | 21.11° C | 61% | 1013.7 hPa | - | - | - | - |
| 1777517842 | 19.44° C | 62% | 1013.6 hPa | - | - | - | - |
| 1777516942 | 20.56° C | 62% | 1013.6 hPa | - | - | - | - |
| 1777516040 | 20.56° C | 62% | 1013.6 hPa | - | - | - | - |
| 1777515140 | 20.56° C | 62% | 1013.6 hPa | - | - | - | - |
| 1777514712 | 20° C | 62% | 1013.6 hPa | - | - | - | - |
| 1777513810 | 20° C | 62% | 1013.7 hPa | - | - | - | - |
| 1777512909 | 19.44° C | 62% | 1013.9 hPa | - | - | - | - |
| 1777512661 | 21.67° C | 61% | 1014.2 hPa | - | - | - | - |
| 1777512008 | 21.67° C | 61% | 1014.2 hPa | - | - | - | - |
| 1777511888 | 20° C | 62% | 1013.8 hPa | - | - | - | - |
| 1777510987 | 20° C | 62% | 1013.8 hPa | - | - | - | - |
* Rain since midnight (hover to see other rain measurements)
** Current wind speed in m/s (hover to see current wind gust speed)